Аэропорт: Днепропетровск. Днепропетровск

ICAO: UKDD

METAR:
2019/03/26 13:00
UKDD 261300Z 07002MPS 340V130 9999 SCT043 11/01 Q1011 R26/210370 NOSIG
METAR:
2019/03/26 12:12
TAF UKDD 261104Z 2612/2712 26005MPS 9999 BKN008 TX08/2612Z TN01/2703Z 
      TEMPO 2612/2622 2100 -SHRA BR BKN007 BKN015CB 
      BECMG 2618/2620 31004MPS 
      TEMPO 2622/2707 0300 DZ FG VV001 
      TEMPO 2707/2712 29009G14MPS 1100 SHRA BKN005 BKN015CB